createdAt,value
2022-12-12T00:01:17.292Z,94472.47
2022-12-12T00:03:45.745Z,94469.75
2022-12-12T00:06:13.721Z,94472.41
2022-12-12T00:08:41.757Z,94475.97
2022-12-12T00:11:10.087Z,94474.34
2022-12-12T00:13:37.941Z,94485.28
2022-12-12T00:16:08.597Z,94481.59
2022-12-12T00:18:37.973Z,94489.19
2022-12-12T00:21:07.044Z,94492.03
2022-12-12T00:23:35.414Z,94485.44
2022-12-12T00:26:06.019Z,94483.03
2022-12-12T00:28:34.432Z,94480.88
2022-12-12T00:31:02.416Z,94484.59
2022-12-12T00:33:31.755Z,94484.88
2022-12-12T00:36:00.316Z,94484.56
2022-12-12T00:38:28.306Z,94488.38
2022-12-12T00:40:56.637Z,94480.72
2022-12-12T00:43:24.852Z,94485.34
2022-12-12T00:45:53.260Z,94487.75
2022-12-12T00:48:21.770Z,94481.72
2022-12-12T00:50:52.724Z,94483.66
2022-12-12T00:53:20.584Z,94485.88
2022-12-12T00:55:55.862Z,94484.63
2022-12-12T00:58:23.796Z,94490.91
2022-12-12T01:00:51.995Z,94484.31
2022-12-12T01:03:20.330Z,94483.19
2022-12-12T01:05:48.327Z,94490.38
2022-12-12T01:08:18.028Z,94498.59
2022-12-12T01:10:46.144Z,94502.91
2022-12-12T01:13:14.027Z,94496.00
2022-12-12T01:15:41.932Z,94494.22
2022-12-12T01:18:09.940Z,94499.03
2022-12-12T01:20:37.901Z,94497.19
2022-12-12T01:23:05.768Z,94495.00
2022-12-12T01:25:35.017Z,94491.59
2022-12-12T01:28:03.393Z,94487.56
2022-12-12T01:30:31.303Z,94496.22
2022-12-12T01:32:59.148Z,94495.94
2022-12-12T01:35:27.228Z,94489.31
2022-12-12T01:37:55.316Z,94491.97
2022-12-12T01:40:24.521Z,94496.31
2022-12-12T01:42:54.982Z,94496.06
2022-12-12T01:45:41.591Z,94504.41
2022-12-12T01:48:09.436Z,94492.84
2022-12-12T01:50:37.255Z,94498.91
2022-12-12T01:53:05.483Z,94502.44
2022-12-12T01:55:33.459Z,94498.78
2022-12-12T01:58:03.707Z,94501.25
2022-12-12T02:00:31.647Z,94501.63
2022-12-12T02:03:00.670Z,94510.84
2022-12-12T02:05:31.407Z,94506.50
2022-12-12T02:08:00.637Z,94504.72
2022-12-12T02:10:28.874Z,94510.31
2022-12-12T02:13:01.296Z,94511.28
2022-12-12T02:15:34.675Z,94508.09
2022-12-12T02:18:12.370Z,94516.94
2022-12-12T02:20:49.716Z,94519.72
2022-12-12T02:23:32.517Z,94520.63
2022-12-12T02:26:07.960Z,94522.44
2022-12-12T02:28:54.107Z,94518.38
2022-12-12T02:31:25.041Z,94515.34
2022-12-12T02:33:54.673Z,94517.91
2022-12-12T02:36:28.272Z,94522.84
2022-12-12T02:38:59.671Z,94517.72
2022-12-12T02:41:30.767Z,94521.94
2022-12-12T02:44:04.563Z,94526.66
2022-12-12T02:46:38.191Z,94528.66
2022-12-12T02:49:08.134Z,94532.69
2022-12-12T02:51:36.965Z,94538.47
2022-12-12T02:54:05.198Z,94536.44
2022-12-12T02:56:47.719Z,94537.91
2022-12-12T02:59:18.347Z,94533.16
2022-12-12T03:01:54.817Z,94540.66
2022-12-12T03:04:43.524Z,94534.47
2022-12-12T03:07:32.883Z,94540.03
2022-12-12T03:10:03.679Z,94535.34
2022-12-12T03:12:35.707Z,94542.06
2022-12-12T03:15:06.548Z,94544.50
2022-12-12T03:17:40.110Z,94545.75
2022-12-12T03:20:10.303Z,94543.22
2022-12-12T03:22:40.614Z,94539.53
2022-12-12T03:25:13.424Z,94547.13
2022-12-12T03:27:46.226Z,94550.63
2022-12-12T03:30:15.398Z,94549.16
2022-12-12T03:32:49.426Z,94547.53
2022-12-12T03:35:20.630Z,94543.59
2022-12-12T03:37:50.491Z,94545.78
2022-12-12T03:40:20.624Z,94545.72
2022-12-12T03:42:50.110Z,94548.94
2022-12-12T03:45:23.916Z,94549.63
2022-12-12T03:47:56.867Z,94549.06
2022-12-12T03:50:27.567Z,94547.50
2022-12-12T03:52:58.092Z,94546.19
2022-12-12T03:55:28.717Z,94557.00
2022-12-12T03:58:00.968Z,94554.94
2022-12-12T04:00:30.827Z,94550.56
2022-12-12T04:03:03.514Z,94546.94
2022-12-12T04:05:37.284Z,94550.72
2022-12-12T04:08:08.685Z,94550.44
2022-12-12T04:10:57.664Z,94547.56
2022-12-12T04:13:32.191Z,94557.78
2022-12-12T04:16:03.192Z,94553.03
2022-12-12T04:18:37.215Z,94553.56
2022-12-12T04:21:40.553Z,94554.81
2022-12-12T04:24:16.318Z,94557.75
2022-12-12T04:26:49.011Z,94555.94
2022-12-12T04:29:24.976Z,94561.09
2022-12-12T04:32:01.198Z,94559.22
2022-12-12T04:34:36.300Z,94560.56
2022-12-12T04:37:04.673Z,94559.63
2022-12-12T04:39:33.923Z,94570.91
2022-12-12T04:42:03.094Z,94573.84
2022-12-12T04:44:33.156Z,94577.50
2022-12-12T04:47:03.845Z,94573.72
2022-12-12T04:49:34.590Z,94571.38
2022-12-12T04:52:04.697Z,94574.22
2022-12-12T04:54:36.645Z,94574.19
2022-12-12T04:57:07.163Z,94575.56
2022-12-12T04:59:35.214Z,94577.66
2022-12-12T05:02:06.884Z,94581.19
2022-12-12T05:04:38.669Z,94579.06
2022-12-12T05:07:08.844Z,94583.69
2022-12-12T05:09:37.090Z,94587.63
2022-12-12T05:12:05.052Z,94588.44
2022-12-12T05:14:33.101Z,94582.50
2022-12-12T05:17:04.400Z,94585.75
2022-12-12T05:19:33.390Z,94590.13
2022-12-12T05:22:03.017Z,94584.69
2022-12-12T05:24:31.361Z,94586.59
2022-12-12T05:27:01.231Z,94591.31
2022-12-12T05:29:29.217Z,94588.19
2022-12-12T05:31:57.115Z,94584.41
2022-12-12T05:34:25.990Z,94596.25
2022-12-12T05:36:56.793Z,94598.44
2022-12-12T05:39:26.009Z,94595.16
2022-12-12T05:41:54.341Z,94597.47
2022-12-12T05:44:22.228Z,94599.09
2022-12-12T05:46:50.242Z,94603.41
2022-12-12T05:49:17.992Z,94602.38
2022-12-12T05:51:46.130Z,94604.00
2022-12-12T05:54:14.212Z,94602.34
2022-12-12T05:56:43.623Z,94604.72
2022-12-12T05:59:11.479Z,94608.91
2022-12-12T06:01:39.353Z,94607.75
2022-12-12T06:04:07.398Z,94614.34
2022-12-12T06:06:35.652Z,94611.59
2022-12-12T06:09:03.471Z,94614.50
2022-12-12T06:11:31.536Z,94614.38
2022-12-12T06:14:01.361Z,94612.09
2022-12-12T06:16:29.436Z,94613.41
2022-12-12T06:18:57.638Z,94613.28
2022-12-12T06:21:25.501Z,94612.44
2022-12-12T06:23:53.311Z,94611.88
2022-12-12T06:26:21.670Z,94618.81
2022-12-12T06:28:50.045Z,94615.25
2022-12-12T06:31:19.451Z,94617.59
2022-12-12T06:33:47.427Z,94618.25
2022-12-12T06:36:16.748Z,94624.75
2022-12-12T06:38:44.634Z,94623.09
2022-12-12T06:41:13.932Z,94623.59
2022-12-12T06:43:42.129Z,94626.16
2022-12-12T06:46:13.894Z,94621.03
2022-12-12T06:48:43.799Z,94629.72
2022-12-12T06:51:12.614Z,94634.22
2022-12-12T06:53:42.057Z,94638.81
2022-12-12T06:56:10.791Z,94643.34
2022-12-12T06:58:38.967Z,94643.16
2022-12-12T07:01:09.356Z,94641.06
2022-12-12T07:03:37.236Z,94639.44
2022-12-12T07:06:06.777Z,94651.81
2022-12-12T07:08:35.199Z,94653.78
2022-12-12T07:11:04.956Z,94654.50
2022-12-12T07:13:33.003Z,94648.88
2022-12-12T07:16:00.856Z,94645.34
2022-12-12T07:18:28.863Z,94643.66
2022-12-12T07:20:56.629Z,94649.41
2022-12-12T07:23:25.793Z,94649.31
2022-12-12T07:25:53.672Z,94652.22
2022-12-12T07:28:21.465Z,94653.31
2022-12-12T07:30:49.801Z,94659.47
2022-12-12T07:33:18.251Z,94666.88
2022-12-12T07:35:46.398Z,94670.22
2022-12-12T07:38:14.258Z,94664.88
2022-12-12T07:40:43.414Z,94669.44
2022-12-12T07:43:11.237Z,94668.19
2022-12-12T07:45:39.160Z,94663.38
2022-12-12T07:48:07.028Z,94667.25
2022-12-12T07:50:34.855Z,94673.25
2022-12-12T07:53:02.732Z,94677.16
2022-12-12T07:55:30.704Z,94674.75
2022-12-12T07:58:00.203Z,94684.50
2022-12-12T08:00:28.904Z,94682.50
2022-12-12T08:02:56.909Z,94686.81
2022-12-12T08:05:24.738Z,94693.19
2022-12-12T08:07:52.609Z,94686.56
2022-12-12T08:10:20.563Z,94683.06
2022-12-12T08:12:48.771Z,94686.84
2022-12-12T08:15:18.643Z,94689.25
2022-12-12T08:17:46.478Z,94685.81
2022-12-12T08:20:14.337Z,94691.69
2022-12-12T08:22:42.244Z,94692.41
2022-12-12T08:25:11.117Z,94691.50
2022-12-12T08:27:39.194Z,94687.03
2022-12-12T08:30:07.868Z,94688.47
2022-12-12T08:32:37.332Z,94681.84
2022-12-12T08:35:05.756Z,94689.88
2022-12-12T08:37:33.663Z,94696.38
2022-12-12T08:40:01.633Z,94704.03
2022-12-12T08:42:29.476Z,94695.03
2022-12-12T08:44:57.251Z,94698.41
2022-12-12T08:47:25.139Z,94698.19
2022-12-12T08:49:54.389Z,94696.47
2022-12-12T08:52:22.209Z,94704.31
2022-12-12T08:54:50.153Z,94704.50
2022-12-12T08:57:21.406Z,94700.59
2022-12-12T08:59:53.703Z,94697.72
2022-12-12T09:02:21.659Z,94709.72
2022-12-12T09:04:49.708Z,94708.25
2022-12-12T09:07:18.925Z,94709.72
2022-12-12T09:09:46.875Z,94713.28
2022-12-12T09:12:16.560Z,94719.22
2022-12-12T09:14:44.710Z,94709.78
2022-12-12T09:17:12.546Z,94717.59
2022-12-12T09:19:41.183Z,94708.66
2022-12-12T09:22:08.994Z,94717.81
2022-12-12T09:24:38.265Z,94714.28
2022-12-12T09:27:06.071Z,94721.19
2022-12-12T09:29:33.865Z,94719.91
2022-12-12T09:32:06.383Z,94718.06
2022-12-12T09:34:34.445Z,94715.03
2022-12-12T09:37:03.038Z,94719.75
2022-12-12T09:39:32.941Z,94723.78
2022-12-12T09:42:13.092Z,94719.75
2022-12-12T09:44:41.331Z,94730.38
2022-12-12T09:47:15.296Z,94726.19
2022-12-12T09:49:47.702Z,94720.66
2022-12-12T09:52:16.521Z,94716.47
2022-12-12T09:54:44.524Z,94721.97
2022-12-12T09:57:20.939Z,94719.13
2022-12-12T09:59:52.540Z,94720.28
2022-12-12T10:02:38.327Z,94721.63
2022-12-12T10:05:12.705Z,94722.47
2022-12-12T10:07:42.820Z,94715.97
2022-12-12T10:10:15.270Z,94708.59
2022-12-12T10:12:45.224Z,94698.94
2022-12-12T10:15:20.700Z,94700.47
2022-12-12T10:17:48.817Z,94698.41
2022-12-12T10:20:18.792Z,94691.53
2022-12-12T10:23:11.616Z,94686.03
2022-12-12T10:25:44.362Z,94688.50
2022-12-12T10:28:14.858Z,94687.97
2022-12-12T10:30:51.292Z,94695.56
2022-12-12T10:33:26.351Z,94695.91
2022-12-12T10:35:59.469Z,94690.41
2022-12-12T10:38:36.141Z,94684.25
2022-12-12T10:41:10.400Z,94680.69
2022-12-12T10:43:45.962Z,94688.56
2022-12-12T10:46:16.615Z,94686.31
2022-12-12T10:48:45.483Z,94683.56
2022-12-12T10:51:15.089Z,94687.41
2022-12-12T10:53:43.072Z,94687.38
2022-12-12T10:56:12.113Z,94689.00
2022-12-12T10:58:42.455Z,94686.81
2022-12-12T11:01:13.065Z,94695.72
2022-12-12T11:03:42.760Z,94693.25
2022-12-12T11:06:13.566Z,94692.47
2022-12-12T11:08:53.892Z,94694.41
2022-12-12T11:11:23.251Z,94687.31
2022-12-12T11:13:53.784Z,94688.22
2022-12-12T11:16:23.919Z,94678.09
2022-12-12T11:18:59.848Z,94677.03
2022-12-12T11:21:28.322Z,94679.25
2022-12-12T11:23:57.477Z,94670.06
2022-12-12T11:26:26.887Z,94669.13
2022-12-12T11:28:58.272Z,94661.00
2022-12-12T11:31:28.716Z,94666.03
2022-12-12T11:33:58.819Z,94658.94
2022-12-12T11:36:31.361Z,94658.03
2022-12-12T11:39:00.595Z,94654.59
2022-12-12T11:41:28.638Z,94656.03
2022-12-12T11:44:01.322Z,94653.75
2022-12-12T11:46:30.500Z,94651.47
2022-12-12T11:49:03.503Z,94651.22
2022-12-12T11:51:35.372Z,94642.06
2022-12-12T11:54:04.042Z,94634.28
2022-12-12T11:56:37.201Z,94629.38
2022-12-12T11:59:17.442Z,94617.78
2022-12-12T12:01:51.314Z,94614.63
2022-12-12T12:04:24.497Z,94611.25
2022-12-12T12:07:04.212Z,94610.94
2022-12-12T12:09:37.727Z,94609.78
2022-12-12T12:12:08.105Z,94604.91
2022-12-12T12:14:51.384Z,94608.56
2022-12-12T12:17:24.430Z,94608.75
2022-12-12T12:19:57.582Z,94619.84
2022-12-12T12:22:32.187Z,94621.28
2022-12-12T12:25:20.833Z,94608.78
2022-12-12T12:27:56.168Z,94605.03
2022-12-12T12:30:26.284Z,94600.88
2022-12-12T12:33:05.510Z,94595.28
2022-12-12T12:35:34.630Z,94599.16
2022-12-12T12:38:10.642Z,94602.69
2022-12-12T12:40:46.591Z,94605.00
2022-12-12T12:43:23.498Z,94603.81
2022-12-12T12:45:56.611Z,94619.06
2022-12-12T12:48:27.784Z,94624.66
2022-12-12T12:51:00.623Z,94611.41
2022-12-12T12:53:33.453Z,94603.88
2022-12-12T12:56:04.194Z,94597.41
2022-12-12T12:58:33.395Z,94601.56
2022-12-12T13:01:05.063Z,94597.06
2022-12-12T13:03:37.716Z,94594.16
2022-12-12T13:06:09.811Z,94584.28
2022-12-12T13:08:44.017Z,94595.25
2022-12-12T13:11:16.041Z,94578.78
2022-12-12T13:13:46.031Z,94582.72
2022-12-12T13:16:17.580Z,94591.91
2022-12-12T13:18:46.819Z,94582.88
2022-12-12T13:21:18.761Z,94595.75
2022-12-12T13:23:52.862Z,94595.47
2022-12-12T13:26:24.854Z,94588.91
2022-12-12T13:28:54.987Z,94593.31
2022-12-12T13:31:36.866Z,94601.88
2022-12-12T13:34:07.492Z,94608.94
2022-12-12T13:36:37.731Z,94603.41
2022-12-12T13:39:06.760Z,94610.63
2022-12-12T13:41:53.331Z,94620.81
2022-12-12T13:44:34.210Z,94610.16
2022-12-12T13:47:03.802Z,60933.22
2022-12-12T13:49:34.291Z,60933.22
2022-12-12T13:52:21.010Z,60933.22
2022-12-12T13:54:49.185Z,60933.22
2022-12-12T13:57:23.528Z,60933.22
2022-12-12T14:00:13.110Z,60933.22
2022-12-12T14:02:45.309Z,60933.22
2022-12-12T14:05:14.736Z,60933.22
2022-12-12T14:07:48.708Z,60933.22
2022-12-12T14:10:19.496Z,60933.22
2022-12-12T14:12:47.372Z,60933.22
2022-12-12T14:15:22.888Z,60933.22
2022-12-12T14:17:58.429Z,60933.22
2022-12-12T14:20:28.533Z,60933.22
2022-12-12T14:23:10.568Z,60933.22
2022-12-12T14:25:39.893Z,60933.22
2022-12-12T14:28:19.961Z,60933.22
2022-12-12T14:30:57.200Z,60933.22
2022-12-12T14:33:46.885Z,60933.22
2022-12-12T14:36:26.653Z,60933.22
2022-12-12T14:39:01.984Z,60933.22
2022-12-12T14:41:34.162Z,60933.22
2022-12-12T14:44:37.861Z,60933.22
2022-12-12T14:46:52.812Z,60933.22
2022-12-12T14:49:22.532Z,60933.22
2022-12-12T14:51:51.846Z,60933.22
2022-12-12T14:54:21.181Z,60933.22
2022-12-12T14:56:52.971Z,60933.22
2022-12-12T14:59:25.167Z,60933.22
2022-12-12T15:01:54.963Z,60933.22
2022-12-12T15:04:25.925Z,60933.22
2022-12-12T15:06:54.194Z,60933.22
2022-12-12T15:09:30.619Z,60933.22
2022-12-12T15:12:07.292Z,60933.22
2022-12-12T15:14:35.792Z,60933.22
2022-12-12T15:17:06.063Z,60933.22
2022-12-12T15:19:41.207Z,60933.22
2022-12-12T15:22:12.914Z,60933.22
2022-12-12T15:24:41.432Z,60933.22
2022-12-12T15:27:09.609Z,60933.22
2022-12-12T15:29:38.958Z,60933.22
2022-12-12T15:32:08.539Z,60933.22
2022-12-12T15:34:41.616Z,60933.22
2022-12-12T15:37:26.646Z,60933.22
2022-12-12T15:39:58.722Z,60933.22
2022-12-12T15:42:26.881Z,60933.22
2022-12-12T15:44:54.996Z,60933.22
2022-12-12T15:47:22.985Z,60933.22
2022-12-12T15:49:54.431Z,60933.22
2022-12-12T15:52:24.828Z,60933.22
2022-12-12T15:54:53.433Z,60933.22
2022-12-12T15:57:23.066Z,60933.22
2022-12-12T15:59:55.350Z,60933.22
2022-12-12T16:02:24.997Z,60933.22
2022-12-12T16:05:02.721Z,60933.22
2022-12-12T16:07:36.498Z,60933.22
2022-12-12T16:10:26.759Z,60933.22
2022-12-12T16:13:06.972Z,60933.22
2022-12-12T16:15:36.765Z,60933.22
2022-12-12T16:18:06.494Z,60933.22
2022-12-12T16:20:37.734Z,60933.22
2022-12-12T16:23:09.902Z,60933.22
2022-12-12T16:25:37.816Z,60933.22
2022-12-12T16:28:23.232Z,60933.22
2022-12-12T16:30:55.077Z,60933.22
2022-12-12T16:33:26.965Z,60933.22
2022-12-12T16:35:56.204Z,60933.22
2022-12-12T16:38:25.412Z,60933.22
2022-12-12T16:40:55.075Z,60933.22
2022-12-12T16:43:24.819Z,60933.22
2022-12-12T16:45:53.395Z,60933.22
2022-12-12T16:48:22.923Z,60933.22
2022-12-12T16:50:51.783Z,60933.22
2022-12-12T16:53:21.592Z,60933.22
2022-12-12T16:55:50.521Z,60933.22
2022-12-12T16:58:18.898Z,60933.22
2022-12-12T17:00:46.762Z,60933.22
2022-12-12T17:03:15.384Z,60933.22
2022-12-12T17:05:43.489Z,60933.22
2022-12-12T17:08:11.786Z,60933.22
2022-12-12T17:10:41.217Z,60933.22
2022-12-12T17:13:21.829Z,60933.22
2022-12-12T17:15:56.393Z,60933.22
2022-12-12T17:18:26.989Z,60933.22
2022-12-12T17:20:55.070Z,60933.22
2022-12-12T17:23:30.152Z,60933.22
2022-12-12T17:26:04.029Z,60933.22
2022-12-12T17:28:34.447Z,60933.22
2022-12-12T17:31:03.225Z,60933.22
2022-12-12T17:33:31.535Z,60933.22
2022-12-12T17:36:01.534Z,60933.22
2022-12-12T17:38:31.696Z,60933.22
2022-12-12T17:41:03.661Z,60933.22
2022-12-12T17:43:32.168Z,60933.22
2022-12-12T17:46:01.470Z,60933.22
2022-12-12T17:48:30.470Z,60933.22
2022-12-12T17:50:59.384Z,60933.22
2022-12-12T17:53:28.810Z,60933.22
2022-12-12T17:56:00.996Z,60933.22
2022-12-12T17:58:34.198Z,60933.22
2022-12-12T18:01:10.091Z,94613.63
2022-12-12T18:03:38.459Z,94676.63
2022-12-12T18:06:06.592Z,94675.53
2022-12-12T18:08:34.728Z,94677.44
2022-12-12T18:11:12.844Z,94682.06
2022-12-12T18:13:50.685Z,94691.31
2022-12-12T18:16:23.644Z,94684.47
2022-12-12T18:18:56.648Z,94681.84
2022-12-12T18:24:13.692Z,94687.31
2022-12-12T18:26:41.786Z,94692.56
2022-12-12T18:29:12.390Z,94688.19
2022-12-12T18:31:40.908Z,94682.53
2022-12-12T18:34:08.897Z,94687.56
2022-12-12T18:36:38.881Z,94697.44
2022-12-12T18:39:07.545Z,94689.84
2022-12-12T18:41:36.740Z,94684.41
2022-12-12T18:44:11.295Z,94683.47
2022-12-12T18:46:43.437Z,94681.06
2022-12-12T18:49:15.578Z,94680.28
2022-12-12T18:51:44.519Z,94681.44
2022-12-12T18:54:16.681Z,94685.97
2022-12-12T18:56:48.199Z,94683.03
2022-12-12T18:59:16.483Z,94683.75
2022-12-12T19:01:48.237Z,94685.69
2022-12-12T19:04:22.812Z,94684.00
2022-12-12T19:06:52.968Z,94682.25
2022-12-12T19:09:24.651Z,94682.06
2022-12-12T19:12:01.959Z,94688.75
2022-12-12T19:17:26.052Z,94686.94
2022-12-12T19:19:55.197Z,94679.22
2022-12-12T19:25:11.041Z,94677.72
2022-12-12T19:27:39.128Z,94677.34
2022-12-12T19:30:07.885Z,94681.19
2022-12-12T19:32:37.441Z,94675.63
2022-12-12T19:35:15.723Z,94684.41
2022-12-12T19:37:43.877Z,94681.25
2022-12-12T19:40:13.019Z,94676.44
2022-12-12T19:42:44.884Z,94673.66
2022-12-12T19:45:12.836Z,94666.31
2022-12-12T19:47:48.165Z,94668.91
2022-12-12T19:50:16.891Z,94667.16
2022-12-12T19:52:45.376Z,94664.72
2022-12-12T19:55:14.756Z,94672.09
2022-12-12T19:58:02.578Z,94664.44
2022-12-12T20:00:44.383Z,94662.03
2022-12-12T20:03:21.562Z,94664.00
2022-12-12T20:06:19.348Z,94657.47
2022-12-12T20:10:55.173Z,94664.97
2022-12-12T20:12:58.739Z,94666.59
2022-12-12T20:15:33.522Z,94664.59
2022-12-12T20:18:02.094Z,94671.53
2022-12-12T20:20:31.445Z,94673.97
2022-12-12T20:23:09.299Z,94667.63
2022-12-12T20:25:40.887Z,94666.97
2022-12-12T20:28:09.106Z,94658.38
2022-12-12T20:30:40.316Z,94660.44
2022-12-12T20:33:08.521Z,94664.47
2022-12-12T20:35:37.928Z,94668.47
2022-12-12T20:38:05.973Z,94665.22
2022-12-12T20:40:40.005Z,94659.78
2022-12-12T20:43:07.936Z,94670.59
2022-12-12T20:45:37.229Z,94668.75
2022-12-12T20:48:07.770Z,94665.81
2022-12-12T20:50:37.351Z,94667.69
2022-12-12T20:53:05.690Z,94669.06
2022-12-12T20:55:35.760Z,94669.63
2022-12-12T20:58:04.305Z,94667.88
2022-12-12T21:00:37.049Z,94671.22
2022-12-12T21:03:05.656Z,94663.28
2022-12-12T21:05:35.605Z,94661.81
2022-12-12T21:08:05.462Z,94660.88
2022-12-12T21:10:34.564Z,94659.66
2022-12-12T21:13:02.571Z,94656.16
2022-12-12T21:15:30.416Z,94653.75
2022-12-12T21:17:58.758Z,94652.56
2022-12-12T21:20:26.617Z,94649.22
2022-12-12T21:22:54.484Z,94646.78
2022-12-12T21:25:27.538Z,94656.81
2022-12-12T21:27:57.167Z,94652.34
2022-12-12T21:30:25.279Z,94658.81
2022-12-12T21:32:53.139Z,94653.41
2022-12-12T21:35:24.688Z,94658.81
2022-12-12T21:37:52.587Z,94659.19
2022-12-12T21:40:20.610Z,94652.91
2022-12-12T21:42:49.945Z,94650.19
2022-12-12T21:45:18.033Z,94651.44
2022-12-12T21:47:48.617Z,94653.81
2022-12-12T21:50:17.188Z,94645.91
2022-12-12T21:53:05.723Z,94649.00
2022-12-12T21:55:36.811Z,94643.91
2022-12-12T21:58:06.052Z,94648.59
2022-12-12T22:00:35.478Z,94643.63
2022-12-12T22:03:03.388Z,94640.13
2022-12-12T22:05:31.248Z,94643.09
2022-12-12T22:07:59.536Z,94641.31
2022-12-12T22:10:27.601Z,94640.22
2022-12-12T22:12:57.496Z,94641.75
2022-12-12T22:15:27.159Z,94639.31
2022-12-12T22:17:55.562Z,94645.09
2022-12-12T22:20:23.341Z,94643.19
2022-12-12T22:22:51.477Z,94641.06
2022-12-12T22:25:19.284Z,94638.91
2022-12-12T22:27:47.490Z,94638.81
2022-12-12T22:30:15.859Z,94636.75
2022-12-12T22:32:45.010Z,94638.09
2022-12-12T22:35:13.128Z,94637.97
2022-12-12T22:37:41.121Z,94633.81
2022-12-12T22:40:09.759Z,94629.09
2022-12-12T22:42:37.944Z,94631.66
2022-12-12T22:45:06.609Z,94631.00
2022-12-12T22:47:34.790Z,94629.13
2022-12-12T22:50:04.080Z,94627.75
2022-12-12T22:52:32.336Z,94628.31
2022-12-12T22:55:00.146Z,94630.31
2022-12-12T22:57:29.529Z,94622.41
2022-12-12T22:59:57.378Z,94623.06
2022-12-12T23:02:25.523Z,94623.88
2022-12-12T23:04:53.533Z,94623.84
2022-12-12T23:07:23.097Z,94615.41
2022-12-12T23:09:53.422Z,94614.19
2022-12-12T23:12:22.680Z,94613.66
2022-12-12T23:14:50.586Z,94614.06
2022-12-12T23:17:18.392Z,94603.84
2022-12-12T23:19:46.318Z,94591.47
2022-12-12T23:22:14.143Z,94599.97
2022-12-12T23:24:43.609Z,94604.50
2022-12-12T23:27:11.569Z,94605.19
2022-12-12T23:29:39.418Z,94602.09
2022-12-12T23:32:07.614Z,94598.31
2022-12-12T23:34:35.884Z,94596.31
2022-12-12T23:37:03.764Z,94598.59
2022-12-12T23:39:31.564Z,94591.34
2022-12-12T23:42:01.037Z,94594.03
2022-12-12T23:44:29.540Z,94590.25
2022-12-12T23:46:58.229Z,94582.28
2022-12-12T23:49:27.066Z,94580.16
2022-12-12T23:51:55.756Z,94580.56
2022-12-12T23:54:24.837Z,94586.50
2022-12-12T23:56:52.881Z,94582.59
2022-12-12T23:59:22.543Z,94572.91
